sensor_id;sensor_type;location;lat;lon;timestamp;P1;durP1;ratioP1;P2;durP2;ratioP2
65936;SDS011;52707;52.086;5.418;2022-12-07T00:00:42;12.98;;;6.10;;
65936;SDS011;52707;52.086;5.418;2022-12-07T00:03:08;7.22;;;5.20;;
65936;SDS011;52707;52.086;5.418;2022-12-07T00:05:35;13.15;;;5.13;;
65936;SDS011;52707;52.086;5.418;2022-12-07T00:08:01;9.27;;;4.80;;
65936;SDS011;52707;52.086;5.418;2022-12-07T00:10:27;13.05;;;4.97;;
65936;SDS011;52707;52.086;5.418;2022-12-07T00:12:53;12.38;;;5.18;;
65936;SDS011;52707;52.086;5.418;2022-12-07T00:15:20;16.73;;;4.95;;
65936;SDS011;52707;52.086;5.418;2022-12-07T00:17:46;8.93;;;4.75;;
65936;SDS011;52707;52.086;5.418;2022-12-07T00:20:12;12.57;;;5.05;;
65936;SDS011;52707;52.086;5.418;2022-12-07T00:22:39;18.63;;;5.60;;
65936;SDS011;52707;52.086;5.418;2022-12-07T00:25:05;8.13;;;4.72;;
65936;SDS011;52707;52.086;5.418;2022-12-07T00:27:31;13.15;;;5.22;;
65936;SDS011;52707;52.086;5.418;2022-12-07T00:29:58;11.25;;;5.10;;
65936;SDS011;52707;52.086;5.418;2022-12-07T00:32:24;15.93;;;5.28;;
65936;SDS011;52707;52.086;5.418;2022-12-07T00:34:51;10.98;;;4.90;;
65936;SDS011;52707;52.086;5.418;2022-12-07T00:37:17;13.38;;;5.47;;
65936;SDS011;52707;52.086;5.418;2022-12-07T00:39:43;14.48;;;4.55;;
65936;SDS011;52707;52.086;5.418;2022-12-07T00:42:11;16.67;;;5.22;;
65936;SDS011;52707;52.086;5.418;2022-12-07T00:44:37;12.60;;;4.95;;
65936;SDS011;52707;52.086;5.418;2022-12-07T00:47:04;11.55;;;4.75;;
65936;SDS011;52707;52.086;5.418;2022-12-07T00:49:30;14.32;;;4.40;;
65936;SDS011;52707;52.086;5.418;2022-12-07T00:51:56;8.75;;;4.45;;
65936;SDS011;52707;52.086;5.418;2022-12-07T00:54:22;22.23;;;4.28;;
65936;SDS011;52707;52.086;5.418;2022-12-07T00:56:49;10.73;;;3.78;;
65936;SDS011;52707;52.086;5.418;2022-12-07T00:59:15;11.20;;;3.78;;
65936;SDS011;52707;52.086;5.418;2022-12-07T01:01:41;19.40;;;4.65;;
65936;SDS011;52707;52.086;5.418;2022-12-07T01:04:08;16.45;;;4.05;;
65936;SDS011;52707;52.086;5.418;2022-12-07T01:06:34;10.02;;;3.60;;
65936;SDS011;52707;52.086;5.418;2022-12-07T01:09:00;11.23;;;4.28;;
65936;SDS011;52707;52.086;5.418;2022-12-07T01:11:27;14.40;;;3.95;;
65936;SDS011;52707;52.086;5.418;2022-12-07T01:13:55;10.43;;;3.65;;
65936;SDS011;52707;52.086;5.418;2022-12-07T01:16:23;12.55;;;4.30;;
65936;SDS011;52707;52.086;5.418;2022-12-07T01:18:50;10.23;;;3.45;;
65936;SDS011;52707;52.086;5.418;2022-12-07T01:21:21;8.65;;;3.60;;
65936;SDS011;52707;52.086;5.418;2022-12-07T01:23:48;14.05;;;4.05;;
65936;SDS011;52707;52.086;5.418;2022-12-07T01:26:15;8.05;;;3.60;;
65936;SDS011;52707;52.086;5.418;2022-12-07T01:28:42;9.45;;;3.30;;
65936;SDS011;52707;52.086;5.418;2022-12-07T01:31:10;5.03;;;2.92;;
65936;SDS011;52707;52.086;5.418;2022-12-07T01:33:42;17.65;;;3.70;;
65936;SDS011;52707;52.086;5.418;2022-12-07T01:36:13;8.02;;;3.35;;
65936;SDS011;52707;52.086;5.418;2022-12-07T01:38:40;11.50;;;3.15;;
65936;SDS011;52707;52.086;5.418;2022-12-07T01:41:06;7.25;;;2.55;;
65936;SDS011;52707;52.086;5.418;2022-12-07T01:43:33;9.27;;;3.17;;
65936;SDS011;52707;52.086;5.418;2022-12-07T01:46:00;14.13;;;3.10;;
65936;SDS011;52707;52.086;5.418;2022-12-07T01:48:37;11.20;;;3.03;;
65936;SDS011;52707;52.086;5.418;2022-12-07T01:51:05;5.18;;;2.88;;
65936;SDS011;52707;52.086;5.418;2022-12-07T01:53:33;16.02;;;3.63;;
65936;SDS011;52707;52.086;5.418;2022-12-07T01:56:01;10.48;;;2.90;;
65936;SDS011;52707;52.086;5.418;2022-12-07T01:58:27;12.18;;;3.08;;
65936;SDS011;52707;52.086;5.418;2022-12-07T02:00:54;6.85;;;2.75;;
65936;SDS011;52707;52.086;5.418;2022-12-07T02:05:46;6.68;;;2.83;;
65936;SDS011;52707;52.086;5.418;2022-12-07T02:08:14;9.38;;;2.90;;
65936;SDS011;52707;52.086;5.418;2022-12-07T02:10:40;8.80;;;2.92;;
65936;SDS011;52707;52.086;5.418;2022-12-07T02:13:11;11.52;;;3.20;;
65936;SDS011;52707;52.086;5.418;2022-12-07T02:18:25;9.20;;;2.92;;
65936;SDS011;52707;52.086;5.418;2022-12-07T02:28:27;7.15;;;2.47;;
65936;SDS011;52707;52.086;5.418;2022-12-07T02:30:55;6.72;;;2.90;;
65936;SDS011;52707;52.086;5.418;2022-12-07T02:34:07;12.00;;;2.80;;
65936;SDS011;52707;52.086;5.418;2022-12-07T02:36:18;13.02;;;2.45;;
65936;SDS011;52707;52.086;5.418;2022-12-07T02:41:21;10.07;;;2.80;;
65936;SDS011;52707;52.086;5.418;2022-12-07T02:43:52;12.77;;;2.80;;
65936;SDS011;52707;52.086;5.418;2022-12-07T02:46:21;13.95;;;3.08;;
65936;SDS011;52707;52.086;5.418;2022-12-07T02:48:48;7.57;;;2.60;;
65936;SDS011;52707;52.086;5.418;2022-12-07T02:51:16;10.95;;;2.72;;
65936;SDS011;52707;52.086;5.418;2022-12-07T02:53:43;9.70;;;2.63;;
65936;SDS011;52707;52.086;5.418;2022-12-07T02:59:09;10.23;;;2.83;;
65936;SDS011;52707;52.086;5.418;2022-12-07T03:06:56;13.52;;;2.88;;
65936;SDS011;52707;52.086;5.418;2022-12-07T03:11:52;10.02;;;2.53;;
65936;SDS011;52707;52.086;5.418;2022-12-07T03:14:25;8.35;;;2.63;;
65936;SDS011;52707;52.086;5.418;2022-12-07T03:16:55;6.13;;;2.20;;
65936;SDS011;52707;52.086;5.418;2022-12-07T03:19:23;7.33;;;2.47;;
65936;SDS011;52707;52.086;5.418;2022-12-07T03:22:00;14.50;;;2.63;;
65936;SDS011;52707;52.086;5.418;2022-12-07T03:24:29;15.40;;;2.65;;
65936;SDS011;52707;52.086;5.418;2022-12-07T03:27:01;8.75;;;2.42;;
65936;SDS011;52707;52.086;5.418;2022-12-07T03:29:30;4.97;;;1.92;;
65936;SDS011;52707;52.086;5.418;2022-12-07T03:32:02;10.45;;;1.95;;
65936;SDS011;52707;52.086;5.418;2022-12-07T03:34:31;12.23;;;2.30;;
65936;SDS011;52707;52.086;5.418;2022-12-07T03:37:00;7.78;;;2.00;;
65936;SDS011;52707;52.086;5.418;2022-12-07T03:39:31;11.00;;;2.35;;
65936;SDS011;52707;52.086;5.418;2022-12-07T03:42:00;10.35;;;2.28;;
65936;SDS011;52707;52.086;5.418;2022-12-07T03:44:27;15.70;;;2.50;;
65936;SDS011;52707;52.086;5.418;2022-12-07T03:47:14;9.90;;;1.98;;
65936;SDS011;52707;52.086;5.418;2022-12-07T03:49:45;15.55;;;3.17;;
65936;SDS011;52707;52.086;5.418;2022-12-07T03:52:21;5.15;;;1.90;;
65936;SDS011;52707;52.086;5.418;2022-12-07T03:54:57;12.55;;;2.47;;
65936;SDS011;52707;52.086;5.418;2022-12-07T03:57:26;5.18;;;1.80;;
65936;SDS011;52707;52.086;5.418;2022-12-07T03:59:54;15.07;;;2.60;;
65936;SDS011;52707;52.086;5.418;2022-12-07T04:02:21;9.57;;;2.08;;
65936;SDS011;52707;52.086;5.418;2022-12-07T04:04:48;11.23;;;2.13;;
65936;SDS011;52707;52.086;5.418;2022-12-07T04:07:14;5.35;;;1.80;;
65936;SDS011;52707;52.086;5.418;2022-12-07T04:09:40;7.45;;;1.92;;
65936;SDS011;52707;52.086;5.418;2022-12-07T04:12:07;6.88;;;2.00;;
65936;SDS011;52707;52.086;5.418;2022-12-07T04:14:33;10.57;;;2.00;;
65936;SDS011;52707;52.086;5.418;2022-12-07T04:17:00;6.60;;;2.03;;
65936;SDS011;52707;52.086;5.418;2022-12-07T04:19:30;10.82;;;2.00;;
65936;SDS011;52707;52.086;5.418;2022-12-07T04:21:57;13.10;;;1.73;;
65936;SDS011;52707;52.086;5.418;2022-12-07T04:24:24;5.40;;;1.60;;
65936;SDS011;52707;52.086;5.418;2022-12-07T04:26:51;11.60;;;2.13;;
65936;SDS011;52707;52.086;5.418;2022-12-07T04:29:17;7.03;;;1.55;;
65936;SDS011;52707;52.086;5.418;2022-12-07T04:31:44;7.22;;;1.90;;
65936;SDS011;52707;52.086;5.418;2022-12-07T04:34:11;3.10;;;1.52;;
65936;SDS011;52707;52.086;5.418;2022-12-07T04:36:38;8.48;;;1.50;;
65936;SDS011;52707;52.086;5.418;2022-12-07T04:39:04;9.35;;;2.00;;
65936;SDS011;52707;52.086;5.418;2022-12-07T04:41:31;12.43;;;2.10;;
65936;SDS011;52707;52.086;5.418;2022-12-07T04:44:01;8.40;;;1.60;;
65936;SDS011;52707;52.086;5.418;2022-12-07T04:46:28;7.70;;;1.88;;
65936;SDS011;52707;52.086;5.418;2022-12-07T04:48:55;6.43;;;1.88;;
65936;SDS011;52707;52.086;5.418;2022-12-07T04:51:23;14.35;;;1.98;;
65936;SDS011;52707;52.086;5.418;2022-12-07T04:53:49;7.05;;;1.65;;
65936;SDS011;52707;52.086;5.418;2022-12-07T04:56:16;12.57;;;1.50;;
65936;SDS011;52707;52.086;5.418;2022-12-07T04:58:43;7.68;;;1.20;;
65936;SDS011;52707;52.086;5.418;2022-12-07T05:01:09;13.73;;;2.63;;
65936;SDS011;52707;52.086;5.418;2022-12-07T05:03:36;13.60;;;2.22;;
65936;SDS011;52707;52.086;5.418;2022-12-07T05:06:03;9.10;;;1.80;;
65936;SDS011;52707;52.086;5.418;2022-12-07T05:08:35;7.40;;;1.10;;
65936;SDS011;52707;52.086;5.418;2022-12-07T05:11:02;8.82;;;1.55;;
65936;SDS011;52707;52.086;5.418;2022-12-07T05:13:29;7.82;;;1.27;;
65936;SDS011;52707;52.086;5.418;2022-12-07T05:15:55;7.65;;;1.50;;
65936;SDS011;52707;52.086;5.418;2022-12-07T05:18:21;6.43;;;1.38;;
65936;SDS011;52707;52.086;5.418;2022-12-07T05:20:48;8.55;;;1.48;;
65936;SDS011;52707;52.086;5.418;2022-12-07T05:23:14;8.38;;;1.45;;
65936;SDS011;52707;52.086;5.418;2022-12-07T05:25:40;4.20;;;1.20;;
65936;SDS011;52707;52.086;5.418;2022-12-07T05:28:07;4.45;;;1.17;;
65936;SDS011;52707;52.086;5.418;2022-12-07T05:30:33;9.75;;;1.42;;
65936;SDS011;52707;52.086;5.418;2022-12-07T05:32:59;4.68;;;1.45;;
65936;SDS011;52707;52.086;5.418;2022-12-07T05:35:25;7.13;;;1.15;;
65936;SDS011;52707;52.086;5.418;2022-12-07T05:37:52;12.07;;;2.47;;
65936;SDS011;52707;52.086;5.418;2022-12-07T05:40:18;8.95;;;1.92;;
65936;SDS011;52707;52.086;5.418;2022-12-07T05:42:45;9.27;;;2.10;;
65936;SDS011;52707;52.086;5.418;2022-12-07T05:45:11;11.40;;;2.05;;
65936;SDS011;52707;52.086;5.418;2022-12-07T05:47:37;3.13;;;1.48;;
65936;SDS011;52707;52.086;5.418;2022-12-07T05:50:04;8.85;;;1.70;;
65936;SDS011;52707;52.086;5.418;2022-12-07T05:52:31;14.63;;;1.45;;
65936;SDS011;52707;52.086;5.418;2022-12-07T05:54:57;8.40;;;1.30;;
65936;SDS011;52707;52.086;5.418;2022-12-07T05:57:23;7.82;;;1.58;;
65936;SDS011;52707;52.086;5.418;2022-12-07T05:59:50;6.05;;;1.30;;
65936;SDS011;52707;52.086;5.418;2022-12-07T06:02:16;10.05;;;1.83;;
65936;SDS011;52707;52.086;5.418;2022-12-07T06:04:45;8.75;;;2.03;;
65936;SDS011;52707;52.086;5.418;2022-12-07T06:07:12;7.40;;;1.85;;
65936;SDS011;52707;52.086;5.418;2022-12-07T06:09:39;8.23;;;1.65;;
65936;SDS011;52707;52.086;5.418;2022-12-07T06:12:05;6.25;;;2.03;;
65936;SDS011;52707;52.086;5.418;2022-12-07T06:14:51;14.73;;;6.22;;
65936;SDS011;52707;52.086;5.418;2022-12-07T06:17:17;10.30;;;2.22;;
65936;SDS011;52707;52.086;5.418;2022-12-07T06:19:43;7.18;;;1.63;;
65936;SDS011;52707;52.086;5.418;2022-12-07T06:22:09;11.85;;;2.00;;
65936;SDS011;52707;52.086;5.418;2022-12-07T06:24:38;6.38;;;2.03;;
65936;SDS011;52707;52.086;5.418;2022-12-07T06:27:04;20.02;;;3.63;;
65936;SDS011;52707;52.086;5.418;2022-12-07T06:29:30;18.65;;;2.28;;
65936;SDS011;52707;52.086;5.418;2022-12-07T06:31:57;7.90;;;2.35;;
65936;SDS011;52707;52.086;5.418;2022-12-07T06:34:24;9.27;;;2.17;;
65936;SDS011;52707;52.086;5.418;2022-12-07T06:36:50;26.83;;;2.63;;
65936;SDS011;52707;52.086;5.418;2022-12-07T06:41:47;10.40;;;2.88;;
65936;SDS011;52707;52.086;5.418;2022-12-07T06:44:13;7.15;;;2.30;;
65936;SDS011;52707;52.086;5.418;2022-12-07T06:46:40;11.18;;;2.03;;
65936;SDS011;52707;52.086;5.418;2022-12-07T06:49:06;9.82;;;2.33;;
65936;SDS011;52707;52.086;5.418;2022-12-07T06:51:33;10.80;;;2.33;;
65936;SDS011;52707;52.086;5.418;2022-12-07T06:54:01;13.10;;;2.47;;
65936;SDS011;52707;52.086;5.418;2022-12-07T06:56:27;12.35;;;2.58;;
65936;SDS011;52707;52.086;5.418;2022-12-07T06:58:54;12.20;;;2.20;;
65936;SDS011;52707;52.086;5.418;2022-12-07T07:01:21;11.15;;;2.25;;
65936;SDS011;52707;52.086;5.418;2022-12-07T07:03:47;12.38;;;1.90;;
65936;SDS011;52707;52.086;5.418;2022-12-07T07:06:14;15.10;;;2.13;;
65936;SDS011;52707;52.086;5.418;2022-12-07T07:08:40;6.82;;;1.83;;
65936;SDS011;52707;52.086;5.418;2022-12-07T07:11:07;12.95;;;2.20;;
65936;SDS011;52707;52.086;5.418;2022-12-07T07:13:33;11.63;;;2.38;;
65936;SDS011;52707;52.086;5.418;2022-12-07T07:16:00;8.95;;;2.55;;
65936;SDS011;52707;52.086;5.418;2022-12-07T07:18:26;11.45;;;2.35;;
65936;SDS011;52707;52.086;5.418;2022-12-07T07:20:52;15.63;;;2.95;;
65936;SDS011;52707;52.086;5.418;2022-12-07T07:23:19;10.68;;;3.42;;
65936;SDS011;52707;52.086;5.418;2022-12-07T07:25:46;17.20;;;2.53;;
65936;SDS011;52707;52.086;5.418;2022-12-07T07:28:12;11.60;;;2.53;;
65936;SDS011;52707;52.086;5.418;2022-12-07T07:30:38;13.77;;;3.10;;
65936;SDS011;52707;52.086;5.418;2022-12-07T07:33:05;10.20;;;3.38;;
65936;SDS011;52707;52.086;5.418;2022-12-07T07:35:32;15.13;;;3.78;;
65936;SDS011;52707;52.086;5.418;2022-12-07T07:38:00;7.38;;;2.90;;
65936;SDS011;52707;52.086;5.418;2022-12-07T07:40:27;7.45;;;2.90;;
65936;SDS011;52707;52.086;5.418;2022-12-07T07:42:54;17.27;;;4.05;;
65936;SDS011;52707;52.086;5.418;2022-12-07T07:45:22;15.40;;;3.70;;
65936;SDS011;52707;52.086;5.418;2022-12-07T07:47:48;14.07;;;3.50;;
65936;SDS011;52707;52.086;5.418;2022-12-07T07:50:14;12.15;;;3.65;;
65936;SDS011;52707;52.086;5.418;2022-12-07T07:52:42;19.63;;;4.35;;
65936;SDS011;52707;52.086;5.418;2022-12-07T07:55:08;17.25;;;5.47;;
65936;SDS011;52707;52.086;5.418;2022-12-07T07:57:35;7.97;;;4.32;;
65936;SDS011;52707;52.086;5.418;2022-12-07T08:00:05;14.10;;;4.85;;
65936;SDS011;52707;52.086;5.418;2022-12-07T08:02:31;19.43;;;5.57;;
65936;SDS011;52707;52.086;5.418;2022-12-07T08:04:58;18.63;;;5.60;;
65936;SDS011;52707;52.086;5.418;2022-12-07T08:07:24;19.20;;;5.13;;
65936;SDS011;52707;52.086;5.418;2022-12-07T08:09:50;13.70;;;4.75;;
65936;SDS011;52707;52.086;5.418;2022-12-07T08:12:17;20.25;;;5.35;;
65936;SDS011;52707;52.086;5.418;2022-12-07T08:14:43;11.77;;;3.05;;
65936;SDS011;52707;52.086;5.418;2022-12-07T08:17:09;13.57;;;3.90;;
65936;SDS011;52707;52.086;5.418;2022-12-07T08:19:36;16.35;;;4.00;;
65936;SDS011;52707;52.086;5.418;2022-12-07T08:22:02;16.60;;;4.60;;
65936;SDS011;52707;52.086;5.418;2022-12-07T08:24:28;15.35;;;4.10;;
65936;SDS011;52707;52.086;5.418;2022-12-07T08:26:55;11.00;;;3.55;;
65936;SDS011;52707;52.086;5.418;2022-12-07T08:29:21;7.63;;;3.40;;
65936;SDS011;52707;52.086;5.418;2022-12-07T08:31:47;18.35;;;4.13;;
65936;SDS011;52707;52.086;5.418;2022-12-07T08:34:14;11.43;;;2.25;;
65936;SDS011;52707;52.086;5.418;2022-12-07T08:36:40;14.43;;;2.65;;
65936;SDS011;52707;52.086;5.418;2022-12-07T08:39:06;10.15;;;2.00;;
65936;SDS011;52707;52.086;5.418;2022-12-07T08:41:53;8.73;;;1.85;;
65936;SDS011;52707;52.086;5.418;2022-12-07T08:44:19;5.43;;;1.40;;
65936;SDS011;52707;52.086;5.418;2022-12-07T08:46:47;5.55;;;1.42;;
65936;SDS011;52707;52.086;5.418;2022-12-07T08:49:22;10.60;;;1.92;;
65936;SDS011;52707;52.086;5.418;2022-12-07T08:51:50;8.32;;;1.65;;
65936;SDS011;52707;52.086;5.418;2022-12-07T08:54:17;5.95;;;1.40;;
65936;SDS011;52707;52.086;5.418;2022-12-07T08:56:44;8.75;;;2.40;;
65936;SDS011;52707;52.086;5.418;2022-12-07T08:59:10;8.90;;;2.28;;
65936;SDS011;52707;52.086;5.418;2022-12-07T09:01:38;4.47;;;1.48;;
65936;SDS011;52707;52.086;5.418;2022-12-07T09:04:05;10.98;;;2.05;;
65936;SDS011;52707;52.086;5.418;2022-12-07T09:06:31;7.90;;;1.88;;
65936;SDS011;52707;52.086;5.418;2022-12-07T09:08:58;6.20;;;1.65;;
65936;SDS011;52707;52.086;5.418;2022-12-07T09:11:24;6.50;;;2.17;;
65936;SDS011;52707;52.086;5.418;2022-12-07T09:13:54;9.30;;;2.03;;
65936;SDS011;52707;52.086;5.418;2022-12-07T09:16:20;8.48;;;1.70;;
65936;SDS011;52707;52.086;5.418;2022-12-07T09:18:46;12.32;;;2.10;;
65936;SDS011;52707;52.086;5.418;2022-12-07T09:21:13;8.63;;;2.00;;
65936;SDS011;52707;52.086;5.418;2022-12-07T09:23:40;14.85;;;2.85;;
65936;SDS011;52707;52.086;5.418;2022-12-07T09:26:07;8.85;;;2.00;;
65936;SDS011;52707;52.086;5.418;2022-12-07T09:28:36;11.20;;;1.92;;
65936;SDS011;52707;52.086;5.418;2022-12-07T09:31:02;10.68;;;1.70;;
65936;SDS011;52707;52.086;5.418;2022-12-07T09:33:53;11.10;;;2.03;;
65936;SDS011;52707;52.086;5.418;2022-12-07T09:36:19;9.20;;;2.05;;
65936;SDS011;52707;52.086;5.418;2022-12-07T09:38:45;9.80;;;1.92;;
65936;SDS011;52707;52.086;5.418;2022-12-07T09:41:12;9.68;;;1.83;;
65936;SDS011;52707;52.086;5.418;2022-12-07T09:43:38;8.18;;;1.70;;
65936;SDS011;52707;52.086;5.418;2022-12-07T09:46:05;5.47;;;1.88;;
65936;SDS011;52707;52.086;5.418;2022-12-07T09:48:32;10.25;;;1.63;;
65936;SDS011;52707;52.086;5.418;2022-12-07T09:51:00;6.15;;;2.25;;
65936;SDS011;52707;52.086;5.418;2022-12-07T09:53:27;8.23;;;2.60;;
65936;SDS011;52707;52.086;5.418;2022-12-07T09:55:54;7.05;;;2.22;;
65936;SDS011;52707;52.086;5.418;2022-12-07T09:58:22;14.48;;;1.98;;
65936;SDS011;52707;52.086;5.418;2022-12-07T10:00:53;5.20;;;1.67;;
65936;SDS011;52707;52.086;5.418;2022-12-07T10:03:20;7.45;;;1.77;;
65936;SDS011;52707;52.086;5.418;2022-12-07T10:05:47;18.77;;;1.88;;
65936;SDS011;52707;52.086;5.418;2022-12-07T10:08:14;7.40;;;1.67;;
65936;SDS011;52707;52.086;5.418;2022-12-07T10:10:44;13.57;;;2.22;;
65936;SDS011;52707;52.086;5.418;2022-12-07T10:13:12;4.68;;;1.40;;
65936;SDS011;52707;52.086;5.418;2022-12-07T10:15:49;12.55;;;1.60;;
65936;SDS011;52707;52.086;5.418;2022-12-07T10:18:33;7.57;;;1.70;;
65936;SDS011;52707;52.086;5.418;2022-12-07T10:23:29;9.70;;;2.22;;
65936;SDS011;52707;52.086;5.418;2022-12-07T10:25:55;5.20;;;1.70;;
65936;SDS011;52707;52.086;5.418;2022-12-07T10:28:22;15.73;;;3.05;;
65936;SDS011;52707;52.086;5.418;2022-12-07T10:31:31;9.70;;;2.92;;
65936;SDS011;52707;52.086;5.418;2022-12-07T10:33:40;9.75;;;2.60;;
65936;SDS011;52707;52.086;5.418;2022-12-07T10:38:45;6.93;;;2.30;;
65936;SDS011;52707;52.086;5.418;2022-12-07T10:41:11;12.35;;;2.63;;
65936;SDS011;52707;52.086;5.418;2022-12-07T10:43:37;16.15;;;3.53;;
65936;SDS011;52707;52.086;5.418;2022-12-07T10:54:12;7.03;;;2.30;;
65936;SDS011;52707;52.086;5.418;2022-12-07T10:56:54;6.68;;;2.20;;
65936;SDS011;52707;52.086;5.418;2022-12-07T10:59:43;6.45;;;1.95;;
65936;SDS011;52707;52.086;5.418;2022-12-07T11:05:02;5.88;;;1.73;;
65936;SDS011;52707;52.086;5.418;2022-12-07T11:10:22;8.65;;;2.00;;
65936;SDS011;52707;52.086;5.418;2022-12-07T11:13:02;6.03;;;1.42;;
65936;SDS011;52707;52.086;5.418;2022-12-07T11:18:07;5.75;;;1.60;;
65936;SDS011;52707;52.086;5.418;2022-12-07T11:20:59;10.00;;;1.27;;
65936;SDS011;52707;52.086;5.418;2022-12-07T11:26:15;8.65;;;1.27;;
65936;SDS011;52707;52.086;5.418;2022-12-07T11:31:16;7.13;;;1.65;;
65936;SDS011;52707;52.086;5.418;2022-12-07T11:36:38;7.85;;;1.80;;
65936;SDS011;52707;52.086;5.418;2022-12-07T11:39:12;7.25;;;1.25;;
65936;SDS011;52707;52.086;5.418;2022-12-07T11:41:42;11.10;;;2.00;;
65936;SDS011;52707;52.086;5.418;2022-12-07T11:46:58;9.10;;;2.33;;
65936;SDS011;52707;52.086;5.418;2022-12-07T11:52:04;11.02;;;2.40;;
65936;SDS011;52707;52.086;5.418;2022-12-07T11:54:33;11.45;;;2.22;;
65936;SDS011;52707;52.086;5.418;2022-12-07T11:57:02;5.70;;;2.00;;
65936;SDS011;52707;52.086;5.418;2022-12-07T11:59:31;7.20;;;1.50;;
65936;SDS011;52707;52.086;5.418;2022-12-07T12:02:13;8.10;;;1.67;;
65936;SDS011;52707;52.086;5.418;2022-12-07T12:07:21;7.32;;;2.83;;
65936;SDS011;52707;52.086;5.418;2022-12-07T12:10:18;3.75;;;2.55;;
65936;SDS011;52707;52.086;5.418;2022-12-07T12:20:49;5.97;;;1.52;;
65936;SDS011;52707;52.086;5.418;2022-12-07T12:25:43;4.60;;;1.67;;
65936;SDS011;52707;52.086;5.418;2022-12-07T12:31:05;5.88;;;1.63;;
65936;SDS011;52707;52.086;5.418;2022-12-07T12:33:32;5.05;;;1.30;;
65936;SDS011;52707;52.086;5.418;2022-12-07T12:43:59;6.25;;;2.10;;
65936;SDS011;52707;52.086;5.418;2022-12-07T12:51:43;6.82;;;2.15;;
65936;SDS011;52707;52.086;5.418;2022-12-07T12:57:05;7.18;;;1.88;;
65936;SDS011;52707;52.086;5.418;2022-12-07T12:59:34;5.50;;;1.98;;
65936;SDS011;52707;52.086;5.418;2022-12-07T13:10:01;7.95;;;1.58;;
65936;SDS011;52707;52.086;5.418;2022-12-07T13:12:28;7.70;;;1.77;;
65936;SDS011;52707;52.086;5.418;2022-12-07T13:14:55;1.20;;;0.63;;
65936;SDS011;52707;52.086;5.418;2022-12-07T13:20:01;2.47;;;0.93;;
65936;SDS011;52707;52.086;5.418;2022-12-07T13:24:58;5.85;;;0.82;;
65936;SDS011;52707;52.086;5.418;2022-12-07T13:27:26;4.05;;;0.80;;
65936;SDS011;52707;52.086;5.418;2022-12-07T13:29:53;5.32;;;0.80;;
65936;SDS011;52707;52.086;5.418;2022-12-07T13:32:26;3.97;;;0.68;;
65936;SDS011;52707;52.086;5.418;2022-12-07T13:37:28;4.78;;;1.05;;
65936;SDS011;52707;52.086;5.418;2022-12-07T13:40:17;3.22;;;0.65;;
65936;SDS011;52707;52.086;5.418;2022-12-07T13:42:44;5.72;;;0.93;;
65936;SDS011;52707;52.086;5.418;2022-12-07T13:45:30;4.88;;;0.82;;
65936;SDS011;52707;52.086;5.418;2022-12-07T13:48:18;11.60;;;0.75;;
65936;SDS011;52707;52.086;5.418;2022-12-07T13:50:52;6.00;;;1.15;;
65936;SDS011;52707;52.086;5.418;2022-12-07T13:53:18;5.07;;;1.33;;
65936;SDS011;52707;52.086;5.418;2022-12-07T13:55:45;4.32;;;1.55;;
65936;SDS011;52707;52.086;5.418;2022-12-07T13:58:19;12.43;;;1.98;;
65936;SDS011;52707;52.086;5.418;2022-12-07T14:00:46;14.48;;;1.25;;
65936;SDS011;52707;52.086;5.418;2022-12-07T14:05:42;6.88;;;1.40;;
65936;SDS011;52707;52.086;5.418;2022-12-07T14:10:36;7.13;;;1.45;;
65936;SDS011;52707;52.086;5.418;2022-12-07T14:13:22;5.43;;;1.65;;
65936;SDS011;52707;52.086;5.418;2022-12-07T14:15:50;6.32;;;1.60;;
65936;SDS011;52707;52.086;5.418;2022-12-07T14:18:24;8.43;;;1.63;;
65936;SDS011;52707;52.086;5.418;2022-12-07T14:20:51;7.97;;;1.50;;
65936;SDS011;52707;52.086;5.418;2022-12-07T14:23:28;9.15;;;2.00;;
65936;SDS011;52707;52.086;5.418;2022-12-07T14:26:03;8.70;;;1.30;;
65936;SDS011;52707;52.086;5.418;2022-12-07T14:28:31;5.95;;;1.38;;
65936;SDS011;52707;52.086;5.418;2022-12-07T14:30:58;7.10;;;2.53;;
65936;SDS011;52707;52.086;5.418;2022-12-07T14:33:24;8.48;;;1.90;;
65936;SDS011;52707;52.086;5.418;2022-12-07T14:35:51;12.20;;;2.60;;
65936;SDS011;52707;52.086;5.418;2022-12-07T14:38:24;7.10;;;2.38;;
65936;SDS011;52707;52.086;5.418;2022-12-07T14:40:54;6.93;;;2.85;;
65936;SDS011;52707;52.086;5.418;2022-12-07T14:43:40;8.00;;;1.70;;
65936;SDS011;52707;52.086;5.418;2022-12-07T14:46:27;9.55;;;2.55;;
65936;SDS011;52707;52.086;5.418;2022-12-07T14:48:53;10.60;;;3.08;;
65936;SDS011;52707;52.086;5.418;2022-12-07T14:51:40;9.98;;;2.83;;
65936;SDS011;52707;52.086;5.418;2022-12-07T14:54:27;6.18;;;2.17;;
65936;SDS011;52707;52.086;5.418;2022-12-07T14:56:55;7.05;;;1.88;;
65936;SDS011;52707;52.086;5.418;2022-12-07T14:59:21;7.65;;;2.38;;
65936;SDS011;52707;52.086;5.418;2022-12-07T15:01:48;4.25;;;1.42;;
65936;SDS011;52707;52.086;5.418;2022-12-07T15:04:14;7.00;;;1.60;;
65936;SDS011;52707;52.086;5.418;2022-12-07T15:06:41;6.13;;;1.90;;
65936;SDS011;52707;52.086;5.418;2022-12-07T15:09:10;8.93;;;2.28;;
65936;SDS011;52707;52.086;5.418;2022-12-07T15:11:37;3.13;;;1.40;;
65936;SDS011;52707;52.086;5.418;2022-12-07T15:14:09;8.20;;;2.13;;
65936;SDS011;52707;52.086;5.418;2022-12-07T15:16:38;11.25;;;3.08;;
65936;SDS011;52707;52.086;5.418;2022-12-07T15:19:26;10.85;;;3.33;;
65936;SDS011;52707;52.086;5.418;2022-12-07T15:21:55;6.40;;;3.03;;
65936;SDS011;52707;52.086;5.418;2022-12-07T15:24:21;10.27;;;2.58;;
65936;SDS011;52707;52.086;5.418;2022-12-07T15:26:49;4.90;;;1.88;;
65936;SDS011;52707;52.086;5.418;2022-12-07T15:29:15;5.65;;;1.90;;
65936;SDS011;52707;52.086;5.418;2022-12-07T15:31:49;3.22;;;1.48;;
65936;SDS011;52707;52.086;5.418;2022-12-07T15:34:24;6.72;;;1.40;;
65936;SDS011;52707;52.086;5.418;2022-12-07T15:36:51;6.40;;;1.35;;
65936;SDS011;52707;52.086;5.418;2022-12-07T15:39:17;5.75;;;1.05;;
65936;SDS011;52707;52.086;5.418;2022-12-07T15:41:43;12.98;;;1.98;;
65936;SDS011;52707;52.086;5.418;2022-12-07T15:44:11;10.05;;;2.35;;
65936;SDS011;52707;52.086;5.418;2022-12-07T15:46:57;7.10;;;2.75;;
65936;SDS011;52707;52.086;5.418;2022-12-07T15:49:23;10.38;;;1.98;;
65936;SDS011;52707;52.086;5.418;2022-12-07T15:51:49;11.65;;;2.97;;
65936;SDS011;52707;52.086;5.418;2022-12-07T15:54:20;14.70;;;5.45;;
65936;SDS011;52707;52.086;5.418;2022-12-07T15:56:47;12.32;;;4.05;;
65936;SDS011;52707;52.086;5.418;2022-12-07T15:59:13;11.80;;;4.32;;
65936;SDS011;52707;52.086;5.418;2022-12-07T16:01:40;11.80;;;5.30;;
65936;SDS011;52707;52.086;5.418;2022-12-07T16:04:06;15.05;;;6.38;;
65936;SDS011;52707;52.086;5.418;2022-12-07T16:06:32;11.50;;;6.05;;
65936;SDS011;52707;52.086;5.418;2022-12-07T16:08:58;11.65;;;6.32;;
65936;SDS011;52707;52.086;5.418;2022-12-07T16:11:25;13.55;;;7.00;;
65936;SDS011;52707;52.086;5.418;2022-12-07T16:13:52;17.02;;;6.90;;
65936;SDS011;52707;52.086;5.418;2022-12-07T16:16:18;20.15;;;9.50;;
65936;SDS011;52707;52.086;5.418;2022-12-07T16:18:45;15.27;;;7.32;;
65936;SDS011;52707;52.086;5.418;2022-12-07T16:21:12;10.85;;;5.20;;
65936;SDS011;52707;52.086;5.418;2022-12-07T16:23:38;11.55;;;4.20;;
65936;SDS011;52707;52.086;5.418;2022-12-07T16:26:06;20.63;;;3.78;;
65936;SDS011;52707;52.086;5.418;2022-12-07T16:28:32;9.48;;;2.78;;
65936;SDS011;52707;52.086;5.418;2022-12-07T16:31:05;7.57;;;2.67;;
65936;SDS011;52707;52.086;5.418;2022-12-07T16:33:36;4.32;;;2.25;;
65936;SDS011;52707;52.086;5.418;2022-12-07T16:36:03;9.13;;;2.90;;
65936;SDS011;52707;52.086;5.418;2022-12-07T16:38:30;7.95;;;3.83;;
65936;SDS011;52707;52.086;5.418;2022-12-07T16:40:56;9.02;;;3.88;;
65936;SDS011;52707;52.086;5.418;2022-12-07T16:43:23;11.35;;;5.22;;
65936;SDS011;52707;52.086;5.418;2022-12-07T16:45:49;17.55;;;5.07;;